Bookmark and Share
Track history (hours):
 

Austin Reinauer

More information available from US FCC via Universal Licensing System and Coast Guard Vessel Documentation Center.

Last reported at 2014-Apr-19 08:33 UTC. Time now 2014-Apr-19 09:28 UTC.
Position N 40°42' W 074°08'.

Length 33 m; draft 6.7 m.

Type: Ship (hazmat cat B). MMSI: 366739920.

NotesDate/timePositionNaut miles runAvg speedWind from/ knotsBaromVisibWave heightAir tempDewpointWater temp
2014-Apr-19 08:33N 40°42' W 074°08'0 0.0
2014-Apr-19 07:33N 40°42' W 074°08'0 0.0
2014-Apr-19 06:32N 40°42' W 074°08'0 0.0
2014-Apr-19 05:23N 40°42' W 074°08'0 0.0
2014-Apr-19 04:29N 40°42' W 074°08'0 0.0
2014-Apr-19 03:29N 40°42' W 074°08'0 0.0
2014-Apr-19 01:23N 40°42' W 074°08'0 0.0
2014-Apr-18 23:20N 40°42' W 074°08'0 0.0
2014-Apr-18 22:20N 40°42' W 074°08'0 0.0
2014-Apr-18 21:26N 40°42' W 074°08'4 5.0
2014-Apr-18 20:33N 40°38' W 074°12'2 1.7
2014-Apr-18 19:32N 40°36' W 074°12'0 0.0
2014-Apr-18 18:31N 40°36' W 074°12'0 0.0
2014-Apr-18 17:28N 40°37' W 074°12'0 0.0
2014-Apr-18 16:12N 40°36' W 074°12'4 6.3
2014-Apr-18 15:34N 40°39' W 074°08'0 0.1
2014-Apr-18 14:27N 40°38' W 074°08'0 0.0
2014-Apr-18 13:29N 40°38' W 074°08'0 0.0
2014-Apr-18 12:26N 40°38' W 074°08'0 0.0
2014-Apr-18 11:32N 40°38' W 074°08'1 1.5
2014-Apr-18 10:31N 40°39' W 074°10'3 2.1
2014-Apr-18 09:16N 40°37' W 074°12'5 7.5
2014-Apr-18 08:33N 40°39' W 074°06'1110.9
2014-Apr-18 07:32N 40°47' W 073°55'8 8.3
2014-Apr-18 06:31N 40°51' W 073°46'1010.4
2014-Apr-18 05:33N 40°57' W 073°35'1110.8
2014-Apr-18 04:33N 41°01' W 073°21'1111.2
2014-Apr-18 03:33N 41°01' W 073°07'1111.4
2014-Apr-18 02:34N 41°02' W 072°51'10 9.3
2014-Apr-18 01:31N 41°00' W 072°39'0 0.0
2014-Apr-18 00:31N 41°00' W 072°39'0 0.0
2014-Apr-17 23:31N 41°00' W 072°39'0 0.0
2014-Apr-17 22:31N 41°00' W 072°39'0 0.0
2014-Apr-17 21:31N 41°00' W 072°39'0 0.0
2014-Apr-17 20:31N 41°00' W 072°39'0 0.0
2014-Apr-17 19:31N 41°00' W 072°39'0 0.0
2014-Apr-17 18:28N 41°00' W 072°39'0 0.0
2014-Apr-17 17:31N 41°00' W 072°39'0 0.0
2014-Apr-17 16:31N 41°00' W 072°39'0 0.0
2014-Apr-17 15:31N 41°00' W 072°39'0 0.0
2014-Apr-17 14:34N 41°00' W 072°39'0 0.0
2014-Apr-17 13:34N 41°00' W 072°39'0 0.0
2014-Apr-17 12:33N 41°00' W 072°39'0 0.0
2014-Apr-17 11:33N 41°00' W 072°39'0 0.0
2014-Apr-17 10:33N 41°00' W 072°39'0 0.0
2014-Apr-17 09:33N 41°00' W 072°39'0 0.0
2014-Apr-17 08:33N 41°00' W 072°39'0 0.0
2014-Apr-17 07:33N 41°00' W 072°39'0 0.0
2014-Apr-17 06:33N 41°00' W 072°39'0 0.0
2014-Apr-17 05:33N 41°00' W 072°39'3 2.5
2014-Apr-17 04:33N 41°01' W 072°42'9 7.5
2014-Apr-17 03:21N 41°02' W 072°54'7 8.4
2014-Apr-17 02:32N 41°01' W 073°03'8 8.1
2014-Apr-17 01:33N 41°01' W 073°13'8 8.3
2014-Apr-17 00:33N 41°00' W 073°24'19 8.6
2014-Apr-16 22:24N 40°51' W 073°46'7 7.0
2014-Apr-16 21:28N 40°48' W 073°53'5 5.6
2014-Apr-16 20:34N 40°45' W 073°58'5 5.5
2014-Apr-16 19:34N 40°40' W 074°03'7 7.0
2014-Apr-16 18:33N 40°38' W 074°11'1 0.9
2014-Apr-16 17:25N 40°38' W 074°12'0 0.0
2014-Apr-16 16:31N 40°38' W 074°12'0 0.0
2014-Apr-16 15:19N 40°38' W 074°12'0 0.0
2014-Apr-16 14:31N 40°38' W 074°12'0 0.0
2014-Apr-16 13:25N 40°38' W 074°12'0 0.0
2014-Apr-16 12:19N 40°38' W 074°12'0 0.0
2014-Apr-16 10:18N 40°38' W 074°12'0 0.0
2014-Apr-16 09:12N 40°38' W 074°12'0 0.0
2014-Apr-16 08:24N 40°38' W 074°12'0 0.0
2014-Apr-16 07:30N 40°38' W 074°12'0 0.0
2014-Apr-16 06:30N 40°38' W 074°12'0 0.0
2014-Apr-16 05:30N 40°38' W 074°12'0 0.0
2014-Apr-16 03:30N 40°38' W 074°12'0 0.0
2014-Apr-16 02:18N 40°38' W 074°12'0 0.0
2014-Apr-16 01:18N 40°38' W 074°12'0 0.0
2014-Apr-16 00:30N 40°38' W 074°12'0 0.0
2014-Apr-15 23:30N 40°38' W 074°12'0 0.0
2014-Apr-15 22:30N 40°38' W 074°12'0 0.0
2014-Apr-15 21:30N 40°38' W 074°12'0 0.0
2014-Apr-15 20:09N 40°38' W 074°12'0 0.0
2014-Apr-15 19:12N 40°38' W 074°12'0 0.0
2014-Apr-15 18:18N 40°38' W 074°12'0 0.0
2014-Apr-15 17:06N 40°38' W 074°12'0 0.0
2014-Apr-15 15:24N 40°38' W 074°12'0 0.0
2014-Apr-15 14:24N 40°38' W 074°12'0 0.0
2014-Apr-15 11:30N 40°38' W 074°12'0 0.0
2014-Apr-15 09:30N 40°38' W 074°12'0 0.0
2014-Apr-15 08:33N 40°38' W 074°12'1 0.9
2014-Apr-15 07:34N 40°38' W 074°12'5 4.8
2014-Apr-15 06:34N 40°39' W 074°05'2 2.4
2014-Apr-15 05:34N 40°40' W 074°03'9 4.3
2014-Apr-15 03:32N 40°47' W 073°55'13 6.6
2014-Apr-15 01:33N 40°54' W 073°41'7 6.8
2014-Apr-15 00:33N 40°57' W 073°33'7 6.8
2014-Apr-14 23:34N 41°00' W 073°25'7 6.6
2014-Apr-14 22:34N 41°01' W 073°16'7 6.5
2014-Apr-14 21:34N 41°02' W 073°08'6 5.7
2014-Apr-14 20:33N 41°05' W 073°01'6 6.3
2014-Apr-14 19:34N 41°10' W 072°56'8 7.7
2014-Apr-14 18:32N 41°17' W 072°55'0 0.0
2014-Apr-14 06:31N 41°18' W 072°54'0 0.0
2014-Apr-14 05:30N 41°18' W 072°54'0 0.0
2014-Apr-13 22:30N 41°18' W 072°55'0 0.0
2014-Apr-13 21:16N 41°18' W 072°55'0 0.0
2014-Apr-13 20:33N 41°18' W 072°55'0 0.0
2014-Apr-13 19:31N 41°18' W 072°55'0 0.0
2014-Apr-13 18:33N 41°18' W 072°55'0 0.0
2014-Apr-13 17:32N 41°18' W 072°55'0 0.0
2014-Apr-13 16:33N 41°18' W 072°55'0 0.0
2014-Apr-13 15:33N 41°18' W 072°55'0 0.1
2014-Apr-13 14:33N 41°18' W 072°55'6 5.8
2014-Apr-13 13:33N 41°12' W 072°55'8 8.2
2014-Apr-13 12:33N 41°07' W 073°04'8 7.9
2014-Apr-13 11:33N 41°04' W 073°14'9 8.6
2014-Apr-13 10:34N 41°00' W 073°24'9 9.0
2014-Apr-13 09:33N 40°57' W 073°35'9 8.9
2014-Apr-13 08:33N 40°52' W 073°45'7 7.5
2014-Apr-13 07:33N 40°48' W 073°54'6 5.5
2014-Apr-13 06:34N 40°44' W 073°58'5 5.1
2014-Apr-13 05:34N 40°40' W 074°02'2 1.6
2014-Apr-13 04:33N 40°39' W 074°04'4 4.3
2014-Apr-13 03:33N 40°42' W 074°08'0 0.1
2014-Apr-13 02:33N 40°42' W 074°08'0 0.0
2014-Apr-13 01:33N 40°42' W 074°08'0 0.0
2014-Apr-13 00:33N 40°42' W 074°08'0 0.0
2014-Apr-12 23:32N 40°42' W 074°08'0 0.0
2014-Apr-12 22:33N 40°42' W 074°08'0 0.0
2014-Apr-12 21:33N 40°42' W 074°08'3 3.0
2014-Apr-12 20:34N 40°39' W 074°09'1 1.0
2014-Apr-12 19:34N 40°38' W 074°08'0 0.0
2014-Apr-12 18:33N 40°38' W 074°08'0 0.0
2014-Apr-12 17:34N 40°38' W 074°08'3 2.8
2014-Apr-12 16:33N 40°41' W 074°08'1 0.7
2014-Apr-12 15:28N 40°42' W 074°09'5 5.2
2014-Apr-12 14:32N 40°38' W 074°12'1 1.4
2014-Apr-12 13:33N 40°36' W 074°12'0 0.0
2014-Apr-12 12:33N 40°36' W 074°12'0 0.0
2014-Apr-12 11:33N 40°36' W 074°12'0 0.0
2014-Apr-12 10:34N 40°36' W 074°12'0 0.0
2014-Apr-12 09:33N 40°36' W 074°12'0 0.0
2014-Apr-12 08:33N 40°36' W 074°12'0 0.0
2014-Apr-12 07:27N 40°36' W 074°12'0 0.0
2014-Apr-12 06:33N 40°36' W 074°12'0 0.0
2014-Apr-12 05:23N 40°36' W 074°12'0 0.0
2014-Apr-12 01:33N 40°36' W 074°12'0 0.0
2014-Apr-12 00:27N 40°36' W 074°12'0 0.0
2014-Apr-11 23:32N 40°36' W 074°12'0 0.1
2014-Apr-11 22:27N 40°37' W 074°12'5 5.6
2014-Apr-11 21:33N 40°39' W 074°06'3 3.1
2014-Apr-11 20:34N 40°40' W 074°03'0 0.0
2014-Apr-11 19:33N 40°40' W 074°03'0 0.0
2014-Apr-11 18:34N 40°40' W 074°03'0 0.0
2014-Apr-11 17:34N 40°40' W 074°03'0 0.0
2014-Apr-11 16:34N 40°40' W 074°03'0 0.0
2014-Apr-11 15:34N 40°40' W 074°03'0 0.0
2014-Apr-11 14:34N 40°40' W 074°03'0 0.0
2014-Apr-11 13:33N 40°40' W 074°03'0 0.0
2014-Apr-11 12:33N 40°40' W 074°03'0 0.1
2014-Apr-11 11:34N 40°40' W 074°03'0 0.0
2014-Apr-11 10:33N 40°40' W 074°03'0 0.0
2014-Apr-11 09:34N 40°40' W 074°03'2 2.3
2014-Apr-11 08:34N 40°42' W 074°00'6 6.4
2014-Apr-11 07:33N 40°47' W 073°56'10 7.4
2014-Apr-11 06:16N 40°52' W 073°45'7 9.6
2014-Apr-11 05:34N 40°56' W 073°37'8 7.8
2014-Apr-11 04:31N 40°59' W 073°28'6 6.3
2014-Apr-11 03:34N 41°02' W 073°20'7 6.7
2014-Apr-11 02:34N 41°02' W 073°11'7 6.8
2014-Apr-11 01:33N 41°03' W 073°03'7 6.8
2014-Apr-11 00:33N 41°06' W 072°54'8 7.9
2014-Apr-10 23:33N 41°08' W 072°44'8 7.6
2014-Apr-10 22:33N 41°08' W 072°34'8 7.9
2014-Apr-10 21:33N 41°11' W 072°24'8 8.0
2014-Apr-10 20:33N 41°14' W 072°14'10 9.5
2014-Apr-10 19:33N 41°14' W 072°01'10 9.5
2014-Apr-10 18:33N 41°16' W 071°49'9 9.4
2014-Apr-10 17:33N 41°17' W 071°36'9 9.3
2014-Apr-10 16:34N 41°18' W 071°24'9 9.4
2014-Apr-10 15:33N 41°21' W 071°12'11 9.7
2014-Apr-10 14:28N 41°27' W 071°00'1010.0
2014-Apr-10 13:31N 41°31' W 070°49'52 6.3
2014-Apr-10 05:13N 42°23' W 070°52'7 9.9
2014-Apr-10 04:34N 42°20' W 070°60'4 1.0
2014-Apr-10 00:28N 42°23' W 071°03'0 0.0
2014-Apr-09 21:27N 42°23' W 071°03'0 0.0
2014-Apr-09 13:05N 42°23' W 071°03'0 0.0
2014-Apr-09 11:30N 42°23' W 071°03'2 1.8
2014-Apr-09 10:33N 42°22' W 071°03'8 6.9
2014-Apr-09 09:19N 42°23' W 070°51'  

Dump ship's entire track history

sailing weather and tide predictions

Austin Reinauer — WCX8055 — position and weather